sensor_id;sensor_type;location;lat;lon;timestamp;P1;durP1;ratioP1;P2;durP2;ratioP2
17965;SDS011;9108;53.204;10.424;2024-02-04T00:01:58;22.52;;;3.00;;
17965;SDS011;9108;53.204;10.424;2024-02-04T00:04:25;20.48;;;2.67;;
17965;SDS011;9108;53.204;10.424;2024-02-04T00:06:53;20.75;;;2.72;;
17965;SDS011;9108;53.204;10.424;2024-02-04T00:09:20;20.40;;;2.60;;
17965;SDS011;9108;53.204;10.424;2024-02-04T00:11:48;21.40;;;2.63;;
17965;SDS011;9108;53.204;10.424;2024-02-04T00:14:15;22.15;;;2.53;;
17965;SDS011;9108;53.204;10.424;2024-02-04T00:16:42;17.77;;;2.50;;
17965;SDS011;9108;53.204;10.424;2024-02-04T00:19:11;21.77;;;2.67;;
17965;SDS011;9108;53.204;10.424;2024-02-04T00:21:38;25.55;;;2.95;;
17965;SDS011;9108;53.204;10.424;2024-02-04T00:24:05;23.33;;;2.35;;
17965;SDS011;9108;53.204;10.424;2024-02-04T00:26:32;19.90;;;2.60;;
17965;SDS011;9108;53.204;10.424;2024-02-04T00:28:59;23.85;;;2.58;;
17965;SDS011;9108;53.204;10.424;2024-02-04T00:31:26;19.13;;;2.97;;
17965;SDS011;9108;53.204;10.424;2024-02-04T00:33:54;17.58;;;2.53;;
17965;SDS011;9108;53.204;10.424;2024-02-04T00:36:22;20.85;;;2.58;;
17965;SDS011;9108;53.204;10.424;2024-02-04T00:38:49;19.30;;;2.58;;
17965;SDS011;9108;53.204;10.424;2024-02-04T00:41:16;19.30;;;2.43;;
17965;SDS011;9108;53.204;10.424;2024-02-04T00:43:43;20.03;;;2.73;;
17965;SDS011;9108;53.204;10.424;2024-02-04T00:46:11;16.07;;;2.40;;
17965;SDS011;9108;53.204;10.424;2024-02-04T00:48:38;19.05;;;2.38;;
17965;SDS011;9108;53.204;10.424;2024-02-04T00:51:06;20.17;;;2.72;;
17965;SDS011;9108;53.204;10.424;2024-02-04T00:53:35;19.50;;;2.53;;
17965;SDS011;9108;53.204;10.424;2024-02-04T00:56:02;20.55;;;2.30;;
17965;SDS011;9108;53.204;10.424;2024-02-04T00:58:29;21.17;;;2.70;;
17965;SDS011;9108;53.204;10.424;2024-02-04T06:30:44;18.50;;;3.95;;
17965;SDS011;9108;53.204;10.424;2024-02-04T06:33:12;20.00;;;4.20;;
17965;SDS011;9108;53.204;10.424;2024-02-04T06:35:39;16.33;;;3.85;;
17965;SDS011;9108;53.204;10.424;2024-02-04T06:38:06;17.02;;;3.90;;
17965;SDS011;9108;53.204;10.424;2024-02-04T06:40:33;18.67;;;4.13;;
17965;SDS011;9108;53.204;10.424;2024-02-04T06:43:00;23.70;;;4.28;;
17965;SDS011;9108;53.204;10.424;2024-02-04T06:45:27;15.32;;;3.60;;
17965;SDS011;9108;53.204;10.424;2024-02-04T06:47:56;17.45;;;3.70;;
17965;SDS011;9108;53.204;10.424;2024-02-04T06:50:23;19.65;;;4.03;;
17965;SDS011;9108;53.204;10.424;2024-02-04T06:52:50;18.63;;;3.45;;
17965;SDS011;9108;53.204;10.424;2024-02-04T06:55:17;19.35;;;3.72;;
17965;SDS011;9108;53.204;10.424;2024-02-04T06:57:44;22.67;;;3.50;;
17965;SDS011;9108;53.204;10.424;2024-02-04T07:00:12;16.80;;;3.70;;
17965;SDS011;9108;53.204;10.424;2024-02-04T07:02:40;18.17;;;3.50;;
17965;SDS011;9108;53.204;10.424;2024-02-04T07:05:09;15.63;;;3.00;;
17965;SDS011;9108;53.204;10.424;2024-02-04T07:07:36;16.50;;;3.33;;
17965;SDS011;9108;53.204;10.424;2024-02-04T07:10:03;18.80;;;3.40;;
17965;SDS011;9108;53.204;10.424;2024-02-04T07:12:31;14.55;;;3.05;;
17965;SDS011;9108;53.204;10.424;2024-02-04T07:14:58;20.65;;;3.28;;
17965;SDS011;9108;53.204;10.424;2024-02-04T07:17:26;12.15;;;2.75;;
17965;SDS011;9108;53.204;10.424;2024-02-04T07:19:53;16.58;;;2.67;;
17965;SDS011;9108;53.204;10.424;2024-02-04T07:22:21;15.90;;;2.85;;
17965;SDS011;9108;53.204;10.424;2024-02-04T07:24:48;14.05;;;2.55;;
17965;SDS011;9108;53.204;10.424;2024-02-04T07:27:15;17.52;;;2.95;;
17965;SDS011;9108;53.204;10.424;2024-02-04T07:29:42;17.52;;;2.80;;
17965;SDS011;9108;53.204;10.424;2024-02-04T07:32:10;15.75;;;2.67;;
17965;SDS011;9108;53.204;10.424;2024-02-04T07:34:37;16.83;;;2.78;;
17965;SDS011;9108;53.204;10.424;2024-02-04T07:37:04;15.48;;;3.25;;
17965;SDS011;9108;53.204;10.424;2024-02-04T07:39:33;16.20;;;2.88;;
17965;SDS011;9108;53.204;10.424;2024-02-04T07:42:00;16.45;;;3.22;;
17965;SDS011;9108;53.204;10.424;2024-02-04T07:44:27;16.25;;;2.50;;
17965;SDS011;9108;53.204;10.424;2024-02-04T07:46:54;12.18;;;2.13;;
17965;SDS011;9108;53.204;10.424;2024-02-04T07:49:21;16.48;;;2.25;;
17965;SDS011;9108;53.204;10.424;2024-02-04T07:51:48;16.48;;;2.35;;
17965;SDS011;9108;53.204;10.424;2024-02-04T07:54:16;16.75;;;2.45;;
17965;SDS011;9108;53.204;10.424;2024-02-04T07:56:44;17.30;;;2.75;;
17965;SDS011;9108;53.204;10.424;2024-02-04T07:59:11;17.50;;;2.20;;
17965;SDS011;9108;53.204;10.424;2024-02-04T08:01:38;13.13;;;2.33;;
17965;SDS011;9108;53.204;10.424;2024-02-04T08:04:06;19.03;;;2.30;;
17965;SDS011;9108;53.204;10.424;2024-02-04T08:06:35;15.65;;;2.88;;
17965;SDS011;9108;53.204;10.424;2024-02-04T08:09:03;13.82;;;2.50;;
17965;SDS011;9108;53.204;10.424;2024-02-04T08:11:30;15.57;;;2.50;;
17965;SDS011;9108;53.204;10.424;2024-02-04T08:13:58;18.35;;;3.40;;
17965;SDS011;9108;53.204;10.424;2024-02-04T08:16:26;17.27;;;3.20;;
17965;SDS011;9108;53.204;10.424;2024-02-04T08:18:53;13.93;;;3.30;;
17965;SDS011;9108;53.204;10.424;2024-02-04T08:21:20;15.67;;;3.30;;
17965;SDS011;9108;53.204;10.424;2024-02-04T08:23:47;14.53;;;2.97;;
17965;SDS011;9108;53.204;10.424;2024-02-04T08:26:15;16.67;;;3.23;;
17965;SDS011;9108;53.204;10.424;2024-02-04T08:28:42;16.05;;;3.47;;
17965;SDS011;9108;53.204;10.424;2024-02-04T08:31:10;17.20;;;3.50;;
17965;SDS011;9108;53.204;10.424;2024-02-04T08:33:39;14.80;;;3.00;;
17965;SDS011;9108;53.204;10.424;2024-02-04T08:36:06;16.25;;;3.30;;
17965;SDS011;9108;53.204;10.424;2024-02-04T08:38:35;16.02;;;3.35;;
17965;SDS011;9108;53.204;10.424;2024-02-04T08:41:02;17.05;;;3.70;;
17965;SDS011;9108;53.204;10.424;2024-02-04T08:43:29;17.55;;;3.72;;
17965;SDS011;9108;53.204;10.424;2024-02-04T08:45:59;16.48;;;3.70;;
17965;SDS011;9108;53.204;10.424;2024-02-04T08:48:28;14.10;;;3.70;;
17965;SDS011;9108;53.204;10.424;2024-02-04T08:50:55;13.45;;;4.07;;
17965;SDS011;9108;53.204;10.424;2024-02-04T08:53:22;19.77;;;4.15;;
17965;SDS011;9108;53.204;10.424;2024-02-04T08:55:49;16.35;;;4.00;;
17965;SDS011;9108;53.204;10.424;2024-02-04T08:58:16;19.30;;;4.07;;
17965;SDS011;9108;53.204;10.424;2024-02-04T09:00:44;15.27;;;3.72;;
17965;SDS011;9108;53.204;10.424;2024-02-04T09:03:11;17.85;;;4.57;;
17965;SDS011;9108;53.204;10.424;2024-02-04T09:05:40;15.63;;;4.28;;
17965;SDS011;9108;53.204;10.424;2024-02-04T09:08:10;15.80;;;4.72;;
17965;SDS011;9108;53.204;10.424;2024-02-04T09:10:37;16.55;;;4.43;;
17965;SDS011;9108;53.204;10.424;2024-02-04T09:13:04;15.63;;;4.10;;
17965;SDS011;9108;53.204;10.424;2024-02-04T09:15:31;19.55;;;4.70;;
17965;SDS011;9108;53.204;10.424;2024-02-04T09:17:59;14.88;;;4.13;;
17965;SDS011;9108;53.204;10.424;2024-02-04T09:20:26;20.65;;;4.43;;
17965;SDS011;9108;53.204;10.424;2024-02-04T09:22:54;14.85;;;4.38;;
17965;SDS011;9108;53.204;10.424;2024-02-04T09:25:21;19.90;;;4.88;;
17965;SDS011;9108;53.204;10.424;2024-02-04T09:27:48;16.45;;;4.47;;
17965;SDS011;9108;53.204;10.424;2024-02-04T09:30:15;17.23;;;4.40;;
17965;SDS011;9108;53.204;10.424;2024-02-04T09:32:43;18.95;;;4.70;;
17965;SDS011;9108;53.204;10.424;2024-02-04T09:35:10;15.32;;;4.72;;
17965;SDS011;9108;53.204;10.424;2024-02-04T09:37:37;17.40;;;4.40;;
17965;SDS011;9108;53.204;10.424;2024-02-04T09:40:06;19.60;;;4.70;;
17965;SDS011;9108;53.204;10.424;2024-02-04T09:42:33;18.27;;;4.75;;
17965;SDS011;9108;53.204;10.424;2024-02-04T09:45:00;17.00;;;4.60;;
17965;SDS011;9108;53.204;10.424;2024-02-04T09:47:28;17.85;;;4.13;;
17965;SDS011;9108;53.204;10.424;2024-02-04T09:49:56;20.02;;;4.10;;
17965;SDS011;9108;53.204;10.424;2024-02-04T09:52:25;17.15;;;3.90;;
17965;SDS011;9108;53.204;10.424;2024-02-04T09:54:57;15.85;;;3.95;;
17965;SDS011;9108;53.204;10.424;2024-02-04T09:57:27;16.63;;;3.80;;
17965;SDS011;9108;53.204;10.424;2024-02-04T09:59:55;19.95;;;4.15;;
17965;SDS011;9108;53.204;10.424;2024-02-04T10:02:22;15.85;;;3.72;;
17965;SDS011;9108;53.204;10.424;2024-02-04T10:04:50;17.27;;;4.27;;
17965;SDS011;9108;53.204;10.424;2024-02-04T10:07:17;15.80;;;3.23;;
17965;SDS011;9108;53.204;10.424;2024-02-04T10:09:44;14.40;;;3.25;;
17965;SDS011;9108;53.204;10.424;2024-02-04T10:12:12;16.60;;;3.10;;
17965;SDS011;9108;53.204;10.424;2024-02-04T10:14:40;16.48;;;3.40;;
17965;SDS011;9108;53.204;10.424;2024-02-04T10:17:07;18.17;;;3.75;;
17965;SDS011;9108;53.204;10.424;2024-02-04T10:19:34;16.67;;;3.35;;
17965;SDS011;9108;53.204;10.424;2024-02-04T10:22:02;17.00;;;3.58;;
17965;SDS011;9108;53.204;10.424;2024-02-04T10:24:30;23.13;;;4.55;;
17965;SDS011;9108;53.204;10.424;2024-02-04T10:26:57;18.48;;;3.15;;
17965;SDS011;9108;53.204;10.424;2024-02-04T10:29:25;20.70;;;3.60;;
17965;SDS011;9108;53.204;10.424;2024-02-04T10:31:56;19.02;;;3.80;;
17965;SDS011;9108;53.204;10.424;2024-02-04T10:34:23;16.48;;;3.30;;
17965;SDS011;9108;53.204;10.424;2024-02-04T10:36:52;18.65;;;3.65;;
17965;SDS011;9108;53.204;10.424;2024-02-04T10:39:19;19.45;;;3.70;;
17965;SDS011;9108;53.204;10.424;2024-02-04T10:41:48;17.83;;;3.00;;
17965;SDS011;9108;53.204;10.424;2024-02-04T10:44:16;19.15;;;3.42;;
17965;SDS011;9108;53.204;10.424;2024-02-04T10:46:44;16.58;;;3.05;;
17965;SDS011;9108;53.204;10.424;2024-02-04T10:49:14;20.75;;;3.22;;
17965;SDS011;9108;53.204;10.424;2024-02-04T10:51:42;20.75;;;3.25;;
17965;SDS011;9108;53.204;10.424;2024-02-04T10:54:09;17.63;;;2.83;;
17965;SDS011;9108;53.204;10.424;2024-02-04T10:56:37;17.57;;;3.10;;
17965;SDS011;9108;53.204;10.424;2024-02-04T10:59:07;23.20;;;2.93;;
17965;SDS011;9108;53.204;10.424;2024-02-04T11:01:37;22.13;;;2.85;;
17965;SDS011;9108;53.204;10.424;2024-02-04T11:04:04;21.27;;;3.28;;
17965;SDS011;9108;53.204;10.424;2024-02-04T11:06:33;14.83;;;2.30;;
17965;SDS011;9108;53.204;10.424;2024-02-04T11:09:00;19.88;;;2.42;;
17965;SDS011;9108;53.204;10.424;2024-02-04T11:11:30;18.52;;;2.65;;
17965;SDS011;9108;53.204;10.424;2024-02-04T11:13:58;18.67;;;3.05;;
17965;SDS011;9108;53.204;10.424;2024-02-04T11:16:31;17.20;;;2.80;;
17965;SDS011;9108;53.204;10.424;2024-02-04T11:19:08;15.90;;;2.58;;
17965;SDS011;9108;53.204;10.424;2024-02-04T11:21:48;19.65;;;3.30;;
17965;SDS011;9108;53.204;10.424;2024-02-04T11:24:22;21.17;;;2.67;;
17965;SDS011;9108;53.204;10.424;2024-02-04T11:26:51;22.65;;;2.70;;
17965;SDS011;9108;53.204;10.424;2024-02-04T11:29:20;20.33;;;3.10;;
17965;SDS011;9108;53.204;10.424;2024-02-04T11:31:48;22.05;;;3.05;;
17965;SDS011;9108;53.204;10.424;2024-02-04T11:34:15;20.02;;;2.97;;
17965;SDS011;9108;53.204;10.424;2024-02-04T11:36:43;19.50;;;3.33;;
17965;SDS011;9108;53.204;10.424;2024-02-04T11:39:14;21.03;;;3.70;;
17965;SDS011;9108;53.204;10.424;2024-02-04T11:41:45;17.37;;;2.87;;
17965;SDS011;9108;53.204;10.424;2024-02-04T11:44:13;16.58;;;2.90;;
17965;SDS011;9108;53.204;10.424;2024-02-04T11:46:46;15.43;;;2.70;;
17965;SDS011;9108;53.204;10.424;2024-02-04T11:49:16;16.83;;;2.50;;
17965;SDS011;9108;53.204;10.424;2024-02-04T11:51:44;17.50;;;2.47;;
17965;SDS011;9108;53.204;10.424;2024-02-04T11:54:14;20.23;;;2.53;;
17965;SDS011;9108;53.204;10.424;2024-02-04T11:56:43;21.92;;;2.78;;
17965;SDS011;9108;53.204;10.424;2024-02-04T11:59:11;17.70;;;2.70;;
17965;SDS011;9108;53.204;10.424;2024-02-04T12:01:39;18.20;;;2.55;;
17965;SDS011;9108;53.204;10.424;2024-02-04T12:04:09;17.83;;;3.00;;
17965;SDS011;9108;53.204;10.424;2024-02-04T12:06:37;20.38;;;2.80;;
17965;SDS011;9108;53.204;10.424;2024-02-04T12:09:05;18.15;;;2.90;;
17965;SDS011;9108;53.204;10.424;2024-02-04T12:11:34;12.27;;;2.53;;
17965;SDS011;9108;53.204;10.424;2024-02-04T12:14:02;16.55;;;2.88;;
17965;SDS011;9108;53.204;10.424;2024-02-04T12:16:30;15.73;;;3.10;;
17965;SDS011;9108;53.204;10.424;2024-02-04T12:18:58;18.60;;;3.47;;
17965;SDS011;9108;53.204;10.424;2024-02-04T12:21:26;17.30;;;2.63;;
17965;SDS011;9108;53.204;10.424;2024-02-04T12:23:53;16.88;;;2.75;;
17965;SDS011;9108;53.204;10.424;2024-02-04T12:26:20;21.50;;;4.03;;
17965;SDS011;9108;53.204;10.424;2024-02-04T12:28:49;17.23;;;3.08;;
17965;SDS011;9108;53.204;10.424;2024-02-04T12:31:17;13.98;;;2.20;;
17965;SDS011;9108;53.204;10.424;2024-02-04T12:33:51;17.57;;;2.50;;
17965;SDS011;9108;53.204;10.424;2024-02-04T12:36:18;18.20;;;2.50;;
17965;SDS011;9108;53.204;10.424;2024-02-04T12:38:49;16.33;;;2.60;;
17965;SDS011;9108;53.204;10.424;2024-02-04T12:41:16;16.50;;;2.97;;
17965;SDS011;9108;53.204;10.424;2024-02-04T12:43:49;17.02;;;2.70;;
17965;SDS011;9108;53.204;10.424;2024-02-04T12:46:17;15.88;;;2.40;;
17965;SDS011;9108;53.204;10.424;2024-02-04T12:48:50;19.40;;;3.15;;
17965;SDS011;9108;53.204;10.424;2024-02-04T12:51:25;15.38;;;2.53;;
17965;SDS011;9108;53.204;10.424;2024-02-04T12:54:01;13.55;;;2.28;;
17965;SDS011;9108;53.204;10.424;2024-02-04T12:56:38;15.35;;;2.47;;
17965;SDS011;9108;53.204;10.424;2024-02-04T12:59:07;22.40;;;2.72;;
17965;SDS011;9108;53.204;10.424;2024-02-04T13:01:34;17.33;;;2.70;;
17965;SDS011;9108;53.204;10.424;2024-02-04T13:04:01;20.65;;;2.60;;
17965;SDS011;9108;53.204;10.424;2024-02-04T13:06:29;12.68;;;2.28;;
17965;SDS011;9108;53.204;10.424;2024-02-04T13:08:57;14.98;;;2.30;;
17965;SDS011;9108;53.204;10.424;2024-02-04T13:11:24;15.85;;;2.60;;
17965;SDS011;9108;53.204;10.424;2024-02-04T13:13:51;15.75;;;2.40;;
17965;SDS011;9108;53.204;10.424;2024-02-04T13:16:20;13.27;;;2.10;;
17965;SDS011;9108;53.204;10.424;2024-02-04T13:18:51;15.30;;;2.40;;
17965;SDS011;9108;53.204;10.424;2024-02-04T13:21:19;13.35;;;2.58;;
17965;SDS011;9108;53.204;10.424;2024-02-04T13:23:47;14.90;;;2.60;;
17965;SDS011;9108;53.204;10.424;2024-02-04T13:26:14;12.73;;;1.95;;
17965;SDS011;9108;53.204;10.424;2024-02-04T13:28:42;12.82;;;2.00;;
17965;SDS011;9108;53.204;10.424;2024-02-04T13:31:09;12.88;;;2.20;;
17965;SDS011;9108;53.204;10.424;2024-02-04T13:33:39;15.85;;;2.70;;
17965;SDS011;9108;53.204;10.424;2024-02-04T13:36:06;15.40;;;2.40;;
17965;SDS011;9108;53.204;10.424;2024-02-04T13:38:35;13.35;;;2.00;;
17965;SDS011;9108;53.204;10.424;2024-02-04T13:41:03;14.88;;;2.20;;
17965;SDS011;9108;53.204;10.424;2024-02-04T13:43:32;19.08;;;2.58;;
17965;SDS011;9108;53.204;10.424;2024-02-04T13:45:59;12.98;;;2.10;;
17965;SDS011;9108;53.204;10.424;2024-02-04T13:48:26;16.77;;;2.30;;
17965;SDS011;9108;53.204;10.424;2024-02-04T13:50:55;16.60;;;2.63;;
17965;SDS011;9108;53.204;10.424;2024-02-04T13:53:22;12.75;;;2.15;;
17965;SDS011;9108;53.204;10.424;2024-02-04T13:55:49;12.68;;;2.20;;
17965;SDS011;9108;53.204;10.424;2024-02-04T13:58:16;14.05;;;2.20;;
17965;SDS011;9108;53.204;10.424;2024-02-04T14:00:44;15.65;;;1.90;;
17965;SDS011;9108;53.204;10.424;2024-02-04T14:03:11;13.23;;;1.80;;
17965;SDS011;9108;53.204;10.424;2024-02-04T14:05:39;16.17;;;2.00;;
17965;SDS011;9108;53.204;10.424;2024-02-04T14:08:07;13.63;;;2.50;;
17965;SDS011;9108;53.204;10.424;2024-02-04T14:10:35;14.68;;;2.20;;
17965;SDS011;9108;53.204;10.424;2024-02-04T14:13:03;12.48;;;2.03;;
17965;SDS011;9108;53.204;10.424;2024-02-04T14:15:31;13.35;;;2.30;;
17965;SDS011;9108;53.204;10.424;2024-02-04T14:17:59;12.55;;;1.95;;
17965;SDS011;9108;53.204;10.424;2024-02-04T14:20:26;17.15;;;2.40;;
17965;SDS011;9108;53.204;10.424;2024-02-04T14:22:53;13.60;;;2.30;;
17965;SDS011;9108;53.204;10.424;2024-02-04T14:25:23;17.25;;;2.30;;
17965;SDS011;9108;53.204;10.424;2024-02-04T14:27:50;11.68;;;2.00;;
17965;SDS011;9108;53.204;10.424;2024-02-04T14:30:17;13.27;;;1.90;;
17965;SDS011;9108;53.204;10.424;2024-02-04T14:32:44;14.38;;;1.90;;
17965;SDS011;9108;53.204;10.424;2024-02-04T14:35:12;11.85;;;2.05;;
17965;SDS011;9108;53.204;10.424;2024-02-04T14:37:39;13.13;;;1.90;;
17965;SDS011;9108;53.204;10.424;2024-02-04T14:40:08;14.38;;;1.98;;
17965;SDS011;9108;53.204;10.424;2024-02-04T14:42:36;13.60;;;2.13;;
17965;SDS011;9108;53.204;10.424;2024-02-04T14:45:05;12.50;;;1.90;;
17965;SDS011;9108;53.204;10.424;2024-02-04T14:47:32;13.80;;;1.85;;
17965;SDS011;9108;53.204;10.424;2024-02-04T14:50:00;14.15;;;2.00;;
17965;SDS011;9108;53.204;10.424;2024-02-04T14:52:27;11.95;;;2.15;;
17965;SDS011;9108;53.204;10.424;2024-02-04T14:54:54;10.23;;;1.95;;
17965;SDS011;9108;53.204;10.424;2024-02-04T14:57:21;10.35;;;1.73;;
17965;SDS011;9108;53.204;10.424;2024-02-04T14:59:50;15.00;;;1.85;;
17965;SDS011;9108;53.204;10.424;2024-02-04T15:02:17;12.20;;;1.80;;
17965;SDS011;9108;53.204;10.424;2024-02-04T15:04:44;10.15;;;1.90;;
17965;SDS011;9108;53.204;10.424;2024-02-04T15:07:11;12.35;;;1.80;;
17965;SDS011;9108;53.204;10.424;2024-02-04T15:09:39;11.77;;;1.70;;
17965;SDS011;9108;53.204;10.424;2024-02-04T15:12:06;13.55;;;1.90;;
17965;SDS011;9108;53.204;10.424;2024-02-04T15:14:34;13.25;;;1.80;;
17965;SDS011;9108;53.204;10.424;2024-02-04T15:17:03;12.80;;;2.08;;
17965;SDS011;9108;53.204;10.424;2024-02-04T15:19:30;12.98;;;1.83;;
17965;SDS011;9108;53.204;10.424;2024-02-04T15:22:01;13.25;;;1.85;;
17965;SDS011;9108;53.204;10.424;2024-02-04T15:24:28;11.93;;;1.87;;
17965;SDS011;9108;53.204;10.424;2024-02-04T15:26:55;13.15;;;2.20;;
17965;SDS011;9108;53.204;10.424;2024-02-04T15:29:28;12.30;;;2.10;;
17965;SDS011;9108;53.204;10.424;2024-02-04T15:31:55;13.57;;;2.50;;
17965;SDS011;9108;53.204;10.424;2024-02-04T15:34:24;15.75;;;2.40;;
17965;SDS011;9108;53.204;10.424;2024-02-04T15:36:56;13.20;;;2.70;;
17965;SDS011;9108;53.204;10.424;2024-02-04T15:39:23;16.85;;;2.50;;
17965;SDS011;9108;53.204;10.424;2024-02-04T15:41:50;13.70;;;2.20;;
17965;SDS011;9108;53.204;10.424;2024-02-04T15:44:18;13.25;;;2.92;;
17965;SDS011;9108;53.204;10.424;2024-02-04T15:46:45;16.25;;;2.53;;
17965;SDS011;9108;53.204;10.424;2024-02-04T15:49:12;17.52;;;2.97;;
17965;SDS011;9108;53.204;10.424;2024-02-04T15:51:41;14.90;;;2.33;;
17965;SDS011;9108;53.204;10.424;2024-02-04T15:54:09;15.10;;;2.58;;
17965;SDS011;9108;53.204;10.424;2024-02-04T15:56:39;14.88;;;2.30;;
17965;SDS011;9108;53.204;10.424;2024-02-04T15:59:08;15.07;;;2.47;;
17965;SDS011;9108;53.204;10.424;2024-02-04T16:01:36;11.45;;;2.67;;
17965;SDS011;9108;53.204;10.424;2024-02-04T16:04:05;15.30;;;2.20;;
17965;SDS011;9108;53.204;10.424;2024-02-04T16:06:32;10.45;;;2.22;;
17965;SDS011;9108;53.204;10.424;2024-02-04T16:09:02;13.27;;;2.22;;
17965;SDS011;9108;53.204;10.424;2024-02-04T16:11:39;17.77;;;2.13;;
17965;SDS011;9108;53.204;10.424;2024-02-04T16:14:08;13.05;;;2.30;;
17965;SDS011;9108;53.204;10.424;2024-02-04T16:16:35;15.20;;;2.40;;
17965;SDS011;9108;53.204;10.424;2024-02-04T16:19:05;12.02;;;2.05;;
17965;SDS011;9108;53.204;10.424;2024-02-04T16:21:33;13.10;;;2.43;;
17965;SDS011;9108;53.204;10.424;2024-02-04T16:24:03;13.82;;;2.10;;
17965;SDS011;9108;53.204;10.424;2024-02-04T16:26:30;13.05;;;2.00;;
17965;SDS011;9108;53.204;10.424;2024-02-04T16:28:57;15.68;;;2.45;;
17965;SDS011;9108;53.204;10.424;2024-02-04T16:31:24;12.82;;;2.30;;
17965;SDS011;9108;53.204;10.424;2024-02-04T16:33:52;14.48;;;2.42;;
17965;SDS011;9108;53.204;10.424;2024-02-04T16:36:21;13.48;;;2.28;;
17965;SDS011;9108;53.204;10.424;2024-02-04T16:38:48;15.18;;;2.22;;
17965;SDS011;9108;53.204;10.424;2024-02-04T16:41:17;14.80;;;2.35;;
17965;SDS011;9108;53.204;10.424;2024-02-04T16:43:44;16.92;;;3.08;;
17965;SDS011;9108;53.204;10.424;2024-02-04T16:46:11;16.52;;;3.28;;
17965;SDS011;9108;53.204;10.424;2024-02-04T16:48:38;15.77;;;3.75;;
17965;SDS011;9108;53.204;10.424;2024-02-04T16:51:05;15.13;;;3.30;;
17965;SDS011;9108;53.204;10.424;2024-02-04T16:53:34;18.25;;;3.22;;
17965;SDS011;9108;53.204;10.424;2024-02-04T16:56:01;17.23;;;3.42;;
17965;SDS011;9108;53.204;10.424;2024-02-04T16:58:31;17.38;;;3.90;;
17965;SDS011;9108;53.204;10.424;2024-02-04T17:00:58;11.87;;;2.60;;
17965;SDS011;9108;53.204;10.424;2024-02-04T17:03:25;13.30;;;3.10;;
17965;SDS011;9108;53.204;10.424;2024-02-04T17:05:53;14.27;;;2.60;;
17965;SDS011;9108;53.204;10.424;2024-02-04T17:08:20;14.10;;;2.70;;
17965;SDS011;9108;53.204;10.424;2024-02-04T17:10:47;13.27;;;2.75;;
17965;SDS011;9108;53.204;10.424;2024-02-04T17:13:16;14.15;;;2.80;;
17965;SDS011;9108;53.204;10.424;2024-02-04T17:15:45;13.93;;;2.65;;
17965;SDS011;9108;53.204;10.424;2024-02-04T17:18:12;11.93;;;2.70;;
17965;SDS011;9108;53.204;10.424;2024-02-04T17:20:43;12.80;;;3.10;;
17965;SDS011;9108;53.204;10.424;2024-02-04T17:23:13;14.38;;;4.50;;
17965;SDS011;9108;53.204;10.424;2024-02-04T17:25:41;14.77;;;3.87;;
17965;SDS011;9108;53.204;10.424;2024-02-04T17:28:10;12.10;;;4.50;;
17965;SDS011;9108;53.204;10.424;2024-02-04T17:30:38;20.70;;;7.10;;
17965;SDS011;9108;53.204;10.424;2024-02-04T17:33:07;30.27;;;11.68;;
17965;SDS011;9108;53.204;10.424;2024-02-04T17:35:35;14.93;;;4.88;;
17965;SDS011;9108;53.204;10.424;2024-02-04T17:38:02;19.67;;;7.15;;
17965;SDS011;9108;53.204;10.424;2024-02-04T17:40:29;52.73;;;19.90;;
17965;SDS011;9108;53.204;10.424;2024-02-04T17:42:57;27.10;;;10.98;;
17965;SDS011;9108;53.204;10.424;2024-02-04T17:45:24;20.30;;;7.78;;
17965;SDS011;9108;53.204;10.424;2024-02-04T17:47:51;27.38;;;11.60;;
17965;SDS011;9108;53.204;10.424;2024-02-04T17:50:20;20.67;;;9.48;;
17965;SDS011;9108;53.204;10.424;2024-02-04T17:52:47;12.07;;;5.78;;
17965;SDS011;9108;53.204;10.424;2024-02-04T17:55:14;11.50;;;5.43;;
17965;SDS011;9108;53.204;10.424;2024-02-04T17:57:41;12.85;;;3.90;;
17965;SDS011;9108;53.204;10.424;2024-02-04T18:00:08;9.35;;;3.05;;
17965;SDS011;9108;53.204;10.424;2024-02-04T18:02:36;9.95;;;3.42;;
17965;SDS011;9108;53.204;10.424;2024-02-04T18:05:04;9.35;;;3.10;;
17965;SDS011;9108;53.204;10.424;2024-02-04T18:07:32;10.15;;;2.95;;
17965;SDS011;9108;53.204;10.424;2024-02-04T18:10:00;10.25;;;2.88;;
17965;SDS011;9108;53.204;10.424;2024-02-04T18:12:30;8.27;;;2.70;;
17965;SDS011;9108;53.204;10.424;2024-02-04T18:14:58;9.55;;;2.80;;
17965;SDS011;9108;53.204;10.424;2024-02-04T18:17:25;10.02;;;2.60;;
17965;SDS011;9108;53.204;10.424;2024-02-04T18:19:52;8.23;;;2.63;;
17965;SDS011;9108;53.204;10.424;2024-02-04T18:22:19;7.97;;;2.80;;
17965;SDS011;9108;53.204;10.424;2024-02-04T18:24:48;11.52;;;3.22;;
17965;SDS011;9108;53.204;10.424;2024-02-04T18:27:16;9.40;;;3.28;;
17965;SDS011;9108;53.204;10.424;2024-02-04T18:29:43;10.38;;;3.58;;
17965;SDS011;9108;53.204;10.424;2024-02-04T18:32:11;8.95;;;3.70;;
17965;SDS011;9108;53.204;10.424;2024-02-04T18:34:38;9.40;;;4.20;;
17965;SDS011;9108;53.204;10.424;2024-02-04T18:37:06;12.20;;;4.53;;
17965;SDS011;9108;53.204;10.424;2024-02-04T18:39:33;12.25;;;4.50;;
17965;SDS011;9108;53.204;10.424;2024-02-04T18:42:01;9.25;;;4.32;;
17965;SDS011;9108;53.204;10.424;2024-02-04T18:44:31;10.13;;;4.43;;
17965;SDS011;9108;53.204;10.424;2024-02-04T18:46:58;11.15;;;4.40;;
17965;SDS011;9108;53.204;10.424;2024-02-04T18:49:26;10.32;;;4.00;;
17965;SDS011;9108;53.204;10.424;2024-02-04T18:51:58;9.88;;;4.40;;
17965;SDS011;9108;53.204;10.424;2024-02-04T18:54:25;9.27;;;4.03;;
17965;SDS011;9108;53.204;10.424;2024-02-04T18:56:53;10.75;;;4.30;;
17965;SDS011;9108;53.204;10.424;2024-02-04T18:59:22;8.57;;;3.87;;
17965;SDS011;9108;53.204;10.424;2024-02-04T19:01:50;10.77;;;4.18;;
17965;SDS011;9108;53.204;10.424;2024-02-04T19:04:17;13.82;;;6.15;;
17965;SDS011;9108;53.204;10.424;2024-02-04T19:06:45;8.52;;;4.00;;
17965;SDS011;9108;53.204;10.424;2024-02-04T19:09:14;7.28;;;3.55;;
17965;SDS011;9108;53.204;10.424;2024-02-04T19:11:41;10.20;;;3.72;;
17965;SDS011;9108;53.204;10.424;2024-02-04T19:14:08;9.52;;;3.55;;
17965;SDS011;9108;53.204;10.424;2024-02-04T19:16:37;12.45;;;3.20;;
17965;SDS011;9108;53.204;10.424;2024-02-04T19:19:04;8.73;;;3.85;;
17965;SDS011;9108;53.204;10.424;2024-02-04T19:21:31;7.43;;;2.80;;
17965;SDS011;9108;53.204;10.424;2024-02-04T19:23:59;5.53;;;2.35;;
17965;SDS011;9108;53.204;10.424;2024-02-04T19:26:29;7.90;;;2.97;;
17965;SDS011;9108;53.204;10.424;2024-02-04T19:28:57;7.20;;;2.77;;
17965;SDS011;9108;53.204;10.424;2024-02-04T19:31:25;9.07;;;2.20;;
17965;SDS011;9108;53.204;10.424;2024-02-04T19:33:53;5.22;;;2.33;;
17965;SDS011;9108;53.204;10.424;2024-02-04T19:36:20;7.38;;;2.30;;
17965;SDS011;9108;53.204;10.424;2024-02-04T19:38:48;8.25;;;3.00;;
17965;SDS011;9108;53.204;10.424;2024-02-04T19:41:15;8.38;;;2.20;;
17965;SDS011;9108;53.204;10.424;2024-02-04T19:43:42;6.63;;;2.50;;
17965;SDS011;9108;53.204;10.424;2024-02-04T19:46:09;6.40;;;2.20;;
17965;SDS011;9108;53.204;10.424;2024-02-04T19:48:36;5.88;;;2.03;;
17965;SDS011;9108;53.204;10.424;2024-02-04T19:51:06;6.30;;;2.25;;
17965;SDS011;9108;53.204;10.424;2024-02-04T19:53:33;4.95;;;1.98;;
17965;SDS011;9108;53.204;10.424;2024-02-04T19:56:00;7.43;;;2.03;;
17965;SDS011;9108;53.204;10.424;2024-02-04T19:58:27;7.40;;;2.00;;
17965;SDS011;9108;53.204;10.424;2024-02-04T20:00:55;7.40;;;2.00;;
17965;SDS011;9108;53.204;10.424;2024-02-04T20:03:22;6.45;;;1.67;;
17965;SDS011;9108;53.204;10.424;2024-02-04T20:05:49;6.13;;;2.05;;
17965;SDS011;9108;53.204;10.424;2024-02-04T20:08:18;6.28;;;1.95;;
17965;SDS011;9108;53.204;10.424;2024-02-04T20:10:45;5.40;;;2.10;;